Time;durP1;ratioP1;P1;durP2;ratioP2;P2;SDS_P1;SDS_P2;PMS_P1;PMS_P2;Temp;Humidity;BMP_temperature;BMP_pressure;BME280_temperature;BME280_humidity;BME280_pressure;Samples;Min_cycle;Max_cycle;Signal;HPM_P1;HPM_P2
2020/12/02 00:00:19;;;;;;;14.02;8.00;;;3.00;88.00;;;;;;5105366;28;27343;-50
2020/12/02 00:03:26;;;;;;;11.77;7.50;;;3.00;88.00;;;;;;5104613;28;27426;-56
2020/12/02 00:06:11;;;;;;;14.15;7.68;;;3.00;88.00;;;;;;5104759;28;27307;-49
2020/12/02 00:08:58;;;;;;;14.43;8.45;;;3.00;88.00;;;;;;5104062;27;27389;-51
2020/12/02 00:11:42;;;;;;;17.10;8.65;;;3.00;88.00;;;;;;5105543;28;27386;-51
2020/12/02 00:14:28;;;;;;;15.80;8.07;;;3.00;88.00;;;;;;5105008;28;27342;-48
2020/12/02 00:22:23;;;;;;;10.52;7.05;;;3.00;88.00;;;;;;5102109;28;27892;-57
2020/12/02 00:25:19;;;;;;;15.35;8.20;;;2.90;88.00;;;;;;4957163;28;27458;-48
2020/12/02 00:28:04;;;;;;;14.00;7.90;;;2.90;88.00;;;;;;5002482;28;27458;-48
2020/12/02 00:30:49;;;;;;;14.07;7.10;;;3.00;88.10;;;;;;5002220;28;27370;-49
2020/12/02 00:33:34;;;;;;;15.18;7.30;;;3.00;88.10;;;;;;5002570;28;27369;-48
2020/12/02 00:36:18;;;;;;;11.98;6.93;;;2.90;88.20;;;;;;5002260;28;27513;-52
2020/12/02 00:39:03;;;;;;;10.02;6.80;;;2.90;88.00;;;;;;5002337;28;27532;-50
2020/12/02 00:41:48;;;;;;;18.75;7.55;;;2.90;88.00;;;;;;5002079;28;27429;-49
2020/12/02 00:44:32;;;;;;;12.23;7.45;;;3.00;88.10;;;;;;5002280;28;27448;-51
2020/12/02 00:47:19;;;;;;;16.42;7.18;;;3.00;88.10;;;;;;5002527;28;27551;-49
2020/12/02 00:50:07;;;;;;;20.92;7.63;;;2.90;88.00;;;;;;5002584;28;27370;-49
2020/12/02 00:53:19;;;;;;;15.20;8.13;;;2.90;88.10;;;;;;5004041;28;27601;-57
2020/12/02 00:56:05;;;;;;;14.75;7.38;;;2.90;88.10;;;;;;5018884;28;27525;-51
2020/12/02 00:59:16;;;;;;;14.02;6.97;;;3.00;88.20;;;;;;5021003;28;27561;-48
2020/12/02 01:02:03;;;;;;;11.68;6.18;;;2.90;88.10;;;;;;5024539;28;27534;-50
2020/12/02 01:04:48;;;;;;;12.25;7.03;;;2.90;88.20;;;;;;5024700;28;27524;-51
2020/12/02 01:07:32;;;;;;;13.45;7.13;;;2.90;88.20;;;;;;5049699;28;27461;-49
2020/12/02 01:10:17;;;;;;;14.93;6.88;;;2.90;88.20;;;;;;5107676;28;27477;-49
2020/12/02 01:13:01;;;;;;;11.32;7.25;;;2.90;88.20;;;;;;5107771;28;27422;-49
2020/12/02 01:15:46;;;;;;;13.95;7.30;;;2.90;88.20;;;;;;5092127;28;27439;-51
2020/12/02 01:18:31;;;;;;;10.90;7.25;;;2.90;88.30;;;;;;5107346;28;27488;-49
2020/12/02 01:22:02;;;;;;;13.07;7.10;;;2.90;88.20;;;;;;5107267;28;27619;-50
2020/12/02 01:24:54;;;;;;;11.05;6.88;;;2.90;88.20;;;;;;5099499;27;27414;-48
2020/12/02 01:27:49;;;;;;;13.13;7.00;;;2.90;88.20;;;;;;5108107;28;27327;-50
2020/12/02 01:30:36;;;;;;;14.80;6.05;;;2.90;88.20;;;;;;5106395;28;27863;-49
2020/12/02 01:33:21;;;;;;;16.25;6.97;;;2.90;88.30;;;;;;5106567;28;27515;-49
2020/12/02 01:36:06;;;;;;;15.38;7.72;;;2.90;88.50;;;;;;5107366;28;27383;-49
2020/12/02 01:38:51;;;;;;;17.13;7.18;;;2.90;88.60;;;;;;5092290;28;27379;-52
2020/12/02 01:41:35;;;;;;;17.00;8.23;;;2.90;88.60;;;;;;5106955;28;27404;-49
2020/12/02 01:44:19;;;;;;;12.60;5.95;;;2.90;88.60;;;;;;5091358;28;27370;-48
2020/12/02 01:47:10;;;;;;;12.77;6.72;;;2.90;88.60;;;;;;5106629;28;27485;-49
2020/12/02 01:50:08;;;;;;;14.52;7.00;;;2.90;88.60;;;;;;5103616;28;27475;-48
2020/12/02 01:53:06;;;;;;;18.92;6.75;;;2.80;88.60;;;;;;5106204;28;27917;-49
2020/12/02 01:55:56;;;;;;;22.10;6.40;;;2.90;88.80;;;;;;5088559;28;27395;-48
2020/12/02 01:58:58;;;;;;;12.77;7.05;;;2.90;88.80;;;;;;5106808;28;27444;-50
2020/12/02 02:02:01;;;;;;;15.88;6.18;;;2.90;88.60;;;;;;5106040;28;27410;-49
2020/12/02 02:05:17;;;;;;;10.60;5.85;;;2.80;88.60;;;;;;5105890;28;27867;-57
2020/12/02 02:08:01;;;;;;;13.88;6.22;;;2.90;88.40;;;;;;5106843;28;27355;-49
2020/12/02 02:10:48;;;;;;;10.57;6.13;;;2.90;88.40;;;;;;5105463;27;27357;-49
2020/12/02 02:13:35;;;;;;;10.50;6.15;;;2.90;88.30;;;;;;5106772;28;27338;-50
2020/12/02 02:16:28;;;;;;;12.80;6.78;;;2.90;88.30;;;;;;5105547;28;27451;-49
2020/12/02 02:19:21;;;;;;;11.70;7.05;;;2.90;88.30;;;;;;5105598;28;27558;-49
2020/12/02 02:22:06;;;;;;;13.20;6.32;;;2.90;88.20;;;;;;5106665;28;27385;-49
2020/12/02 02:24:50;;;;;;;13.95;6.28;;;2.90;88.30;;;;;;5106471;28;27334;-49
2020/12/02 02:27:35;;;;;;;11.18;5.80;;;2.90;88.20;;;;;;5106129;28;27917;-50
2020/12/02 02:30:20;;;;;;;13.77;6.65;;;2.90;88.20;;;;;;5088235;28;27380;-49
2020/12/02 02:33:04;;;;;;;9.18;6.03;;;2.90;88.30;;;;;;5102926;28;27374;-50
2020/12/02 02:35:49;;;;;;;11.40;5.93;;;2.90;88.20;;;;;;5105325;28;27422;-49
2020/12/02 02:38:33;;;;;;;15.20;6.50;;;2.90;88.20;;;;;;5105189;28;27488;-51
2020/12/02 02:41:18;;;;;;;12.57;6.70;;;3.00;88.30;;;;;;5106210;28;27481;-49
2020/12/02 02:44:03;;;;;;;11.80;6.32;;;2.90;88.30;;;;;;5106276;28;27468;-48
2020/12/02 02:46:49;;;;;;;11.30;6.15;;;2.90;88.30;;;;;;5105631;28;27426;-48
2020/12/02 02:49:34;;;;;;;9.82;5.78;;;2.90;88.30;;;;;;5106135;28;27867;-49
2020/12/02 02:52:18;;;;;;;10.40;6.85;;;3.00;89.10;;;;;;5106094;28;27486;-48
2020/12/02 02:55:03;;;;;;;15.52;6.82;;;2.90;88.50;;;;;;5105139;28;27428;-48
2020/12/02 02:57:47;;;;;;;14.73;7.75;;;2.90;88.60;;;;;;5105809;28;27465;-49
2020/12/02 03:00:32;;;;;;;15.32;8.70;;;2.90;88.70;;;;;;5105989;28;27442;-51
2020/12/02 03:03:18;;;;;;;13.23;7.55;;;2.90;88.80;;;;;;5105021;28;27579;-52
2020/12/02 03:06:03;;;;;;;14.23;7.78;;;2.90;88.80;;;;;;5105639;28;27407;-49
2020/12/02 03:08:48;;;;;;;14.18;8.32;;;2.90;88.70;;;;;;5105558;28;27402;-48
2020/12/02 03:11:32;;;;;;;18.48;8.07;;;2.90;88.70;;;;;;5105047;28;27462;-49
2020/12/02 03:14:17;;;;;;;13.82;8.82;;;2.90;88.90;;;;;;5104704;28;27439;-49
2020/12/02 03:17:02;;;;;;;16.73;8.48;;;2.90;89.60;;;;;;5105172;28;27501;-48
2020/12/02 03:20:24;;;;;;;13.48;7.22;;;2.90;88.90;;;;;;5106010;28;27448;-50
2020/12/02 03:23:10;;;;;;;15.93;8.25;;;2.90;89.00;;;;;;5073441;28;27561;-48
2020/12/02 03:25:54;;;;;;;15.63;8.32;;;2.90;89.00;;;;;;5105152;28;27441;-48
2020/12/02 03:28:40;;;;;;;16.52;8.27;;;2.90;89.20;;;;;;5105301;28;27453;-48
2020/12/02 03:31:24;;;;;;;14.45;8.15;;;2.90;89.90;;;;;;5105093;28;27319;-51
2020/12/02 03:34:13;;;;;;;15.45;8.10;;;2.80;88.90;;;;;;5105478;28;28010;-50
2020/12/02 03:36:57;;;;;;;14.45;7.95;;;2.90;88.90;;;;;;5105120;28;27423;-49
2020/12/02 03:39:42;;;;;;;16.73;8.23;;;2.80;88.90;;;;;;5105569;28;27394;-48
2020/12/02 03:42:26;;;;;;;13.00;7.35;;;2.90;88.90;;;;;;5105633;28;27492;-48
2020/12/02 03:45:11;;;;;;;12.63;7.82;;;2.90;88.90;;;;;;5104932;28;27491;-50
2020/12/02 03:47:55;;;;;;;14.02;8.18;;;2.90;88.80;;;;;;5104957;28;27473;-50
2020/12/02 03:50:40;;;;;;;14.57;8.18;;;2.90;88.90;;;;;;5105294;28;27485;-49
2020/12/02 03:53:25;;;;;;;13.18;8.02;;;2.90;88.80;;;;;;5105064;28;27505;-54
2020/12/02 03:56:10;;;;;;;13.38;8.00;;;2.90;88.90;;;;;;5105349;28;27431;-48
2020/12/02 03:58:54;;;;;;;14.55;7.93;;;2.80;88.80;;;;;;5104368;28;27466;-49
2020/12/02 04:01:39;;;;;;;15.35;7.82;;;2.90;88.90;;;;;;5105125;28;27324;-48
2020/12/02 04:04:24;;;;;;;12.95;7.35;;;2.80;88.80;;;;;;5104265;28;27330;-49
2020/12/02 04:07:09;;;;;;;15.25;8.50;;;2.80;88.80;;;;;;5104374;28;27331;-49
2020/12/02 04:09:53;;;;;;;13.60;8.43;;;2.90;88.80;;;;;;5104233;28;27406;-49
2020/12/02 04:12:38;;;;;;;15.68;8.02;;;2.80;88.80;;;;;;5104944;28;27374;-51
2020/12/02 04:15:23;;;;;;;12.02;7.50;;;2.90;88.80;;;;;;5104924;28;27332;-49
2020/12/02 04:18:08;;;;;;;15.07;8.48;;;2.90;88.90;;;;;;5105487;28;27327;-49
2020/12/02 04:20:52;;;;;;;14.68;7.55;;;2.80;88.90;;;;;;5105009;28;27343;-50
2020/12/02 04:23:36;;;;;;;14.35;8.10;;;2.90;88.90;;;;;;5104851;28;26944;-50
2020/12/02 04:26:21;;;;;;;12.52;6.35;;;2.90;88.90;;;;;;5104012;28;27366;-51
2020/12/02 04:29:09;;;;;;;12.25;7.38;;;2.90;88.90;;;;;;5072027;28;27413;-57
2020/12/02 04:31:53;;;;;;;11.50;6.80;;;2.80;88.90;;;;;;5104186;27;27400;-50
2020/12/02 04:34:38;;;;;;;11.93;7.43;;;2.90;88.90;;;;;;5108390;28;27394;-51
2020/12/02 04:37:22;;;;;;;13.20;6.80;;;2.90;88.80;;;;;;5108386;28;27365;-49
2020/12/02 04:40:33;;;;;;;13.98;7.05;;;2.80;88.90;;;;;;5107941;28;27390;-48
2020/12/02 04:43:27;;;;;;;13.13;7.22;;;2.80;88.90;;;;;;5107131;28;27498;-48
2020/12/02 04:46:24;;;;;;;11.77;7.32;;;2.80;88.90;;;;;;5107293;28;27449;-50
2020/12/02 04:49:24;;;;;;;15.45;7.82;;;2.80;89.00;;;;;;5107833;28;27339;-50
2020/12/02 04:52:13;;;;;;;13.30;7.97;;;2.80;89.00;;;;;;5107971;28;27322;-50
2020/12/02 04:54:58;;;;;;;13.55;7.55;;;2.80;89.20;;;;;;5107839;28;27481;-49
2020/12/02 04:57:42;;;;;;;11.50;6.63;;;2.80;89.90;;;;;;5108146;28;27406;-48
2020/12/02 05:00:30;;;;;;;13.10;7.05;;;2.80;89.10;;;;;;5107901;28;27409;-48
2020/12/02 05:03:15;;;;;;;11.95;6.95;;;2.80;89.10;;;;;;5107054;28;27346;-50
2020/12/02 05:06:01;;;;;;;10.45;6.75;;;2.80;89.90;;;;;;5107762;28;27335;-49
2020/12/02 05:08:45;;;;;;;10.80;6.57;;;2.80;89.00;;;;;;5108033;28;27374;-48
2020/12/02 05:11:30;;;;;;;11.40;6.97;;;2.80;89.10;;;;;;5107605;28;27320;-49
2020/12/02 05:14:14;;;;;;;14.10;7.88;;;2.80;89.00;;;;;;5106751;28;27383;-52
2020/12/02 05:17:04;;;;;;;14.50;8.07;;;2.80;89.00;;;;;;5107677;28;27539;-48
2020/12/02 05:20:10;;;;;;;15.45;7.78;;;2.80;89.20;;;;;;5106949;28;27457;-48
2020/12/02 05:22:54;;;;;;;13.68;7.57;;;2.70;89.00;;;;;;5104318;28;27456;-49
2020/12/02 05:25:39;;;;;;;14.57;8.00;;;2.80;89.20;;;;;;5107384;28;27322;-51
2020/12/02 05:28:31;;;;;;;12.93;7.72;;;2.80;89.20;;;;;;5107218;28;27415;-49
2020/12/02 05:31:26;;;;;;;14.00;8.73;;;2.80;89.30;;;;;;5106932;28;27386;-49
2020/12/02 05:34:21;;;;;;;12.57;7.47;;;2.80;89.30;;;;;;5107192;28;27401;-49
2020/12/02 05:37:16;;;;;;;14.43;8.18;;;2.70;89.30;;;;;;5107294;28;27315;-57
2020/12/02 05:40:03;;;;;;;14.10;8.20;;;2.70;89.30;;;;;;5106556;28;27438;-49
2020/12/02 05:42:58;;;;;;;13.95;7.75;;;2.80;89.40;;;;;;5106499;28;27409;-50
2020/12/02 05:45:44;;;;;;;13.52;7.68;;;2.80;89.40;;;;;;5105391;27;27431;-49
2020/12/02 05:48:36;;;;;;;15.63;8.48;;;2.70;89.40;;;;;;5105820;28;27869;-49
2020/12/02 05:51:21;;;;;;;14.68;8.18;;;2.70;89.50;;;;;;5106092;28;27389;-51
2020/12/02 05:54:16;;;;;;;16.25;8.93;;;2.70;89.50;;;;;;5106185;28;27398;-48
2020/12/02 05:57:02;;;;;;;14.65;8.45;;;2.80;89.50;;;;;;5106769;28;27334;-48
2020/12/02 05:59:47;;;;;;;14.85;9.00;;;2.80;89.50;;;;;;5106232;28;27392;-50
2020/12/02 06:02:32;;;;;;;16.92;8.90;;;2.70;89.50;;;;;;5092035;28;27396;-49
2020/12/02 06:05:17;;;;;;;11.63;7.45;;;2.70;89.50;;;;;;5106929;28;27311;-57
2020/12/02 06:08:03;;;;;;;11.52;7.15;;;2.80;89.50;;;;;;5106440;28;27312;-49
2020/12/02 06:10:48;;;;;;;15.60;8.55;;;2.70;89.40;;;;;;5106674;28;27859;-57
2020/12/02 06:13:38;;;;;;;16.60;8.18;;;2.70;89.50;;;;;;5106495;28;27576;-48
2020/12/02 06:16:22;;;;;;;12.75;8.30;;;2.80;89.50;;;;;;5106586;28;27417;-47
2020/12/02 06:19:27;;;;;;;16.02;9.02;;;2.70;89.60;;;;;;5106023;28;27453;-48
2020/12/02 06:22:12;;;;;;;12.23;7.93;;;2.70;89.60;;;;;;5105886;28;27435;-50
2020/12/02 06:24:56;;;;;;;13.57;8.30;;;2.70;89.60;;;;;;5107031;28;27478;-57
2020/12/02 06:27:41;;;;;;;13.25;7.80;;;2.70;89.70;;;;;;5106738;28;27419;-51
2020/12/02 06:30:26;;;;;;;14.23;7.70;;;2.70;89.60;;;;;;5106255;28;27461;-49
2020/12/02 06:33:18;;;;;;;13.13;7.95;;;2.70;89.60;;;;;;5102204;28;27918;-48
2020/12/02 06:36:11;;;;;;;12.45;8.02;;;2.70;89.60;;;;;;5106491;28;27370;-57
2020/12/02 06:39:23;;;;;;;13.90;7.93;;;2.70;89.50;;;;;;5106267;28;27377;-48
2020/12/02 06:42:35;;;;;;;13.20;7.95;;;2.70;89.60;;;;;;5105167;28;27395;-49
2020/12/02 06:45:30;;;;;;;14.93;8.48;;;2.70;89.60;;;;;;5106508;28;27427;-48
2020/12/02 06:48:28;;;;;;;13.18;7.82;;;2.70;89.40;;;;;;5106140;28;27450;-50
2020/12/02 06:51:14;;;;;;;12.13;7.20;;;2.70;89.40;;;;;;5101979;28;27477;-49
2020/12/02 06:53:58;;;;;;;13.85;7.72;;;2.70;89.40;;;;;;5105435;28;27413;-51
2020/12/02 06:56:43;;;;;;;13.15;7.75;;;2.70;89.30;;;;;;5105837;27;27463;-50
2020/12/02 06:59:28;;;;;;;14.45;8.13;;;2.70;89.50;;;;;;5105769;28;27406;-49
2020/12/02 07:02:12;;;;;;;12.60;7.97;;;2.70;89.50;;;;;;5105829;28;27415;-49
2020/12/02 07:04:56;;;;;;;12.43;7.75;;;2.70;89.60;;;;;;5104033;28;27439;-49
2020/12/02 07:07:41;;;;;;;10.52;7.20;;;2.70;89.50;;;;;;5090777;28;27475;-58
2020/12/02 07:10:25;;;;;;;12.52;8.05;;;2.80;89.60;;;;;;5104750;28;27408;-49
2020/12/02 07:13:14;;;;;;;12.25;6.97;;;2.80;89.60;;;;;;5105737;28;27554;-50
2020/12/02 07:15:59;;;;;;;9.88;6.70;;;2.80;89.40;;;;;;5105076;28;27473;-50
2020/12/02 07:18:46;;;;;;;11.13;7.57;;;2.80;89.30;;;;;;5105768;28;27472;-50
2020/12/02 07:21:36;;;;;;;11.00;7.10;;;2.80;89.20;;;;;;5105815;28;27516;-48
2020/12/02 07:24:27;;;;;;;11.18;6.80;;;2.80;89.10;;;;;;5106022;28;27489;-52
2020/12/02 07:27:12;;;;;;;11.25;7.47;;;2.80;89.00;;;;;;5105308;28;27374;-51
2020/12/02 07:29:58;;;;;;;10.77;7.18;;;2.80;89.00;;;;;;5105276;28;27366;-47
2020/12/02 07:32:42;;;;;;;11.88;7.32;;;2.80;89.00;;;;;;5105647;28;27340;-49
2020/12/02 07:35:27;;;;;;;12.23;7.13;;;2.90;89.00;;;;;;5106051;28;27418;-49
2020/12/02 07:38:13;;;;;;;11.45;7.13;;;2.90;89.00;;;;;;5105215;28;27389;-48
2020/12/02 07:41:23;;;;;;;15.23;7.30;;;2.90;88.80;;;;;;5105058;28;27398;-49
2020/12/02 07:44:08;;;;;;;11.00;7.22;;;2.90;88.80;;;;;;5086721;28;27466;-48
2020/12/02 07:46:53;;;;;;;11.75;6.93;;;2.90;88.60;;;;;;5089782;28;27584;-48
2020/12/02 07:49:38;;;;;;;10.40;6.80;;;3.00;88.80;;;;;;5104566;28;27447;-48
2020/12/02 07:52:27;;;;;;;12.95;7.45;;;3.00;88.70;;;;;;5104958;28;27871;-50
2020/12/02 07:55:17;;;;;;;10.25;7.07;;;3.00;88.60;;;;;;5104929;28;27495;-48
2020/12/02 07:58:01;;;;;;;11.52;7.00;;;3.00;88.60;;;;;;5090472;28;27479;-48
2020/12/02 08:00:46;;;;;;;12.32;6.95;;;3.10;88.60;;;;;;5101399;28;27493;-48
2020/12/02 08:03:38;;;;;;;12.07;7.18;;;3.10;88.60;;;;;;5088280;28;27497;-48
2020/12/02 08:06:42;;;;;;;11.32;7.25;;;3.20;88.50;;;;;;5104897;28;27327;-49
2020/12/02 08:09:28;;;;;;;11.13;7.00;;;3.20;88.50;;;;;;5104543;28;27382;-48
2020/12/02 08:12:29;;;;;;;11.43;6.95;;;3.20;88.60;;;;;;5105632;28;27368;-48
2020/12/02 08:15:14;;;;;;;11.00;7.40;;;3.20;88.50;;;;;;5105053;28;27867;-48
2020/12/02 08:18:20;;;;;;;14.80;8.25;;;3.20;88.50;;;;;;5104571;28;27518;-49
2020/12/02 08:21:14;;;;;;;11.93;7.13;;;3.20;88.50;;;;;;5104881;28;27431;-48
2020/12/02 08:24:36;;;;;;;10.10;7.13;;;3.30;88.40;;;;;;5100482;28;27486;-50
2020/12/02 08:27:21;;;;;;;14.10;8.40;;;3.30;88.20;;;;;;5104146;28;27461;-49
2020/12/02 08:30:15;;;;;;;11.75;7.35;;;3.30;88.30;;;;;;5103417;28;27502;-50
2020/12/02 08:33:02;;;;;;;13.55;8.00;;;3.30;88.20;;;;;;5104765;28;27426;-49
2020/12/02 08:35:48;;;;;;;13.20;8.23;;;3.30;88.20;;;;;;5104730;28;27456;-48
2020/12/02 08:38:37;;;;;;;12.63;7.68;;;3.40;88.20;;;;;;5100800;28;28011;-48
2020/12/02 08:41:21;;;;;;;13.85;8.43;;;3.40;88.00;;;;;;5104210;28;27359;-48
2020/12/02 08:44:16;;;;;;;15.85;8.38;;;3.40;87.90;;;;;;5103487;28;27353;-49
2020/12/02 08:47:07;;;;;;;12.50;7.50;;;3.50;87.90;;;;;;5104022;28;27420;-51
2020/12/02 08:49:52;;;;;;;13.45;8.02;;;3.50;87.90;;;;;;5100397;28;27915;-50
2020/12/02 08:52:36;;;;;;;15.82;8.55;;;3.50;87.80;;;;;;5104255;28;27415;-49
2020/12/02 08:55:21;;;;;;;14.63;7.88;;;3.60;87.70;;;;;;5104590;28;27457;-49
2020/12/02 08:58:05;;;;;;;10.95;7.05;;;3.60;87.60;;;;;;5103036;28;27485;-51
2020/12/02 09:00:50;;;;;;;11.55;7.72;;;3.70;87.50;;;;;;5104304;28;27430;-48
2020/12/02 09:03:34;;;;;;;13.80;8.13;;;3.70;87.30;;;;;;5103761;28;27323;-49
2020/12/02 09:06:19;;;;;;;12.00;7.22;;;3.80;87.30;;;;;;5104117;28;27377;-49
2020/12/02 09:09:04;;;;;;;12.98;8.18;;;3.80;87.00;;;;;;5104036;28;27433;-47
2020/12/02 09:11:49;;;;;;;12.02;7.18;;;3.90;87.00;;;;;;5099917;28;27945;-48
2020/12/02 09:14:35;;;;;;;11.30;7.03;;;4.00;86.70;;;;;;5104350;28;27398;-48
2020/12/02 09:17:20;;;;;;;10.40;7.05;;;4.00;86.70;;;;;;5104515;28;27481;-49
2020/12/02 09:20:05;;;;;;;10.32;6.32;;;4.00;86.50;;;;;;5106815;27;27387;-49
2020/12/02 09:22:50;;;;;;;8.93;5.80;;;4.10;86.30;;;;;;5107586;28;27456;-52
2020/12/02 09:25:35;;;;;;;8.90;6.82;;;4.10;86.30;;;;;;5107275;28;27543;-48
2020/12/02 09:28:19;;;;;;;10.52;6.07;;;4.20;86.10;;;;;;5108081;28;27409;-48
2020/12/02 09:31:04;;;;;;;9.43;6.53;;;4.20;85.80;;;;;;5107544;28;27323;-50
2020/12/02 09:33:49;;;;;;;10.95;6.25;;;4.30;85.70;;;;;;5107237;28;27824;-49
2020/12/02 09:36:34;;;;;;;10.15;6.60;;;4.40;85.50;;;;;;5107122;28;27385;-49
2020/12/02 09:39:19;;;;;;;9.40;5.93;;;4.40;85.20;;;;;;5107407;28;27316;-48
2020/12/02 09:42:09;;;;;;;9.75;6.70;;;4.50;84.80;;;;;;5107056;28;27390;-49
2020/12/02 09:45:10;;;;;;;10.27;6.47;;;4.60;84.60;;;;;;5106157;28;27462;-49
2020/12/02 09:47:55;;;;;;;11.15;6.75;;;4.60;84.20;;;;;;5107230;28;27497;-49
2020/12/02 09:50:40;;;;;;;7.32;5.63;;;4.70;84.10;;;;;;5106409;28;27485;-48
2020/12/02 09:53:28;;;;;;;11.60;6.85;;;4.70;83.70;;;;;;5106067;28;27492;-54
2020/12/02 09:56:12;;;;;;;11.38;6.72;;;4.70;83.50;;;;;;5102777;28;27469;-48
2020/12/02 09:58:57;;;;;;;10.25;6.82;;;4.80;83.30;;;;;;5091923;28;27398;-51
2020/12/02 10:02:09;;;;;;;12.43;6.43;;;4.80;83.30;;;;;;5106805;28;27422;-50
2020/12/02 10:05:19;;;;;;;10.60;6.95;;;4.80;83.30;;;;;;5107094;28;27852;-48
2020/12/02 10:08:24;;;;;;;11.82;7.00;;;4.80;83.40;;;;;;5106936;28;27847;-48
2020/12/02 10:11:39;;;;;;;10.88;6.70;;;4.80;83.50;;;;;;5106523;28;27436;-48
2020/12/02 10:14:36;;;;;;;12.18;6.50;;;4.80;83.40;;;;;;5106874;28;27461;-49
2020/12/02 10:17:40;;;;;;;9.98;6.47;;;4.80;83.10;;;;;;5106767;28;27309;-49
2020/12/02 10:20:24;;;;;;;10.35;6.38;;;4.90;83.10;;;;;;5105290;28;27423;-51
2020/12/02 10:23:35;;;;;;;10.88;6.38;;;4.90;83.20;;;;;;5106622;28;27418;-49
2020/12/02 10:26:38;;;;;;;10.80;5.88;;;4.90;83.20;;;;;;5089948;28;27494;-49
2020/12/02 10:29:31;;;;;;;10.55;6.85;;;4.90;83.20;;;;;;5106694;28;27390;-51
2020/12/02 10:32:49;;;;;;;9.90;6.35;;;4.90;83.10;;;;;;5105627;28;27315;-52
2020/12/02 10:35:35;;;;;;;10.82;6.55;;;5.00;82.90;;;;;;5106144;28;27439;-49
2020/12/02 10:38:39;;;;;;;8.70;5.82;;;5.00;82.80;;;;;;5106253;28;27327;-50
2020/12/02 10:41:24;;;;;;;10.60;6.57;;;5.00;82.60;;;;;;5106273;28;27339;-49
2020/12/02 10:44:09;;;;;;;10.15;6.00;;;5.00;82.60;;;;;;5106946;28;27365;-48
2020/12/02 10:47:15;;;;;;;10.95;6.28;;;5.10;83.00;;;;;;5106040;28;27583;-48
2020/12/02 10:50:00;;;;;;;10.48;6.63;;;5.20;82.50;;;;;;5105556;28;27350;-48
2020/12/02 10:52:49;;;;;;;10.35;6.15;;;5.20;82.10;;;;;;5106205;28;27410;-49
2020/12/02 10:55:34;;;;;;;10.45;6.10;;;5.30;82.10;;;;;;5105745;28;27472;-49
2020/12/02 10:58:25;;;;;;;10.43;6.00;;;5.40;81.90;;;;;;5106050;28;27418;-49
2020/12/02 11:01:09;;;;;;;10.43;6.30;;;5.50;81.90;;;;;;5105402;28;27395;-48
2020/12/02 11:03:54;;;;;;;9.02;5.40;;;5.60;82.10;;;;;;5104142;28;27392;-48
2020/12/02 11:06:54;;;;;;;9.30;5.97;;;5.70;81.60;;;;;;5104906;28;27335;-47
2020/12/02 11:09:48;;;;;;;9.45;5.40;;;5.70;81.10;;;;;;5105683;28;27490;-48
2020/12/02 11:13:01;;;;;;;10.20;5.57;;;5.90;80.80;;;;;;5104815;28;27423;-51
2020/12/02 11:16:50;;;;;;;11.23;6.30;;;6.00;80.50;;;;;;5077334;28;27413;-49
2020/12/02 11:20:09;;;;;;;7.78;5.18;;;6.00;80.00;;;;;;5083515;27;27410;-50
2020/12/02 11:23:18;;;;;;;7.18;4.75;;;6.00;80.90;;;;;;5105391;28;27373;-48
2020/12/02 11:26:14;;;;;;;7.68;4.88;;;6.00;80.10;;;;;;5105485;28;27410;-48
2020/12/02 11:28:59;;;;;;;9.05;5.13;;;6.00;80.40;;;;;;5104993;28;27461;-49
2020/12/02 11:31:47;;;;;;;8.63;5.30;;;6.00;79.90;;;;;;5105216;28;28008;-48
2020/12/02 11:34:50;;;;;;;9.52;5.05;;;6.00;80.00;;;;;;5105471;28;27323;-48
2020/12/02 11:37:56;;;;;;;8.68;5.00;;;6.10;79.90;;;;;;5104475;28;27432;-49
2020/12/02 11:40:50;;;;;;;7.57;4.78;;;6.10;79.90;;;;;;5104839;28;27374;-57
2020/12/02 11:43:41;;;;;;;8.55;5.47;;;6.20;79.80;;;;;;5103071;27;27375;-58
2020/12/02 11:46:26;;;;;;;7.60;4.70;;;6.20;79.60;;;;;;5104226;28;27466;-47
2020/12/02 11:49:18;;;;;;;7.78;4.95;;;6.20;79.30;;;;;;5105641;28;27465;-47
2020/12/02 11:52:09;;;;;;;7.30;4.60;;;6.20;79.10;;;;;;5090916;28;27442;-50
2020/12/02 11:54:55;;;;;;;12.52;5.90;;;6.20;79.20;;;;;;5105196;28;27419;-50
2020/12/02 11:57:46;;;;;;;10.13;6.10;;;6.20;79.20;;;;;;5104905;28;27473;-59
2020/12/02 12:00:30;;;;;;;11.20;6.75;;;6.20;79.30;;;;;;5104778;28;27450;-49
2020/12/02 12:03:29;;;;;;;14.23;8.20;;;6.20;79.20;;;;;;5104618;28;27387;-48
2020/12/02 12:06:22;;;;;;;14.93;7.95;;;6.20;79.40;;;;;;5103942;28;27428;-49
2020/12/02 12:09:42;;;;;;;20.30;9.35;;;6.10;79.30;;;;;;5104845;28;27513;-48
2020/12/02 12:12:32;;;;;;;21.67;10.38;;;6.10;79.90;;;;;;5104465;28;27336;-47
2020/12/02 12:15:20;;;;;;;24.98;9.88;;;6.10;79.20;;;;;;5105001;28;27492;-49
2020/12/02 12:18:11;;;;;;;22.55;10.25;;;6.10;79.20;;;;;;5104649;28;27540;-47
2020/12/02 12:20:58;;;;;;;20.40;9.70;;;6.10;79.30;;;;;;5104582;28;27451;-51
2020/12/02 12:23:45;;;;;;;17.85;8.30;;;6.10;79.30;;;;;;5104623;28;27412;-50
2020/12/02 12:26:56;;;;;;;18.38;8.70;;;6.00;79.00;;;;;;5105092;28;27402;-48
2020/12/02 12:29:41;;;;;;;15.45;7.95;;;6.00;79.40;;;;;;5101915;28;27414;-48
2020/12/02 12:33:01;;;;;;;17.48;9.35;;;6.00;79.60;;;;;;5104384;28;27406;-51
2020/12/02 12:35:49;;;;;;;18.05;7.82;;;5.90;79.90;;;;;;5103966;28;27371;-48
2020/12/02 12:38:56;;;;;;;15.55;8.38;;;5.90;80.40;;;;;;5104382;28;27323;-48
2020/12/02 12:41:50;;;;;;;16.73;8.73;;;5.80;80.20;;;;;;5103803;28;27540;-51
2020/12/02 12:44:35;;;;;;;15.52;7.70;;;5.70;80.80;;;;;;5104205;28;27367;-58
2020/12/02 12:47:20;;;;;;;16.13;7.70;;;5.60;80.80;;;;;;5103972;28;27430;-49
2020/12/02 12:50:06;;;;;;;13.93;8.45;;;5.60;81.10;;;;;;5104190;28;27387;-48
2020/12/02 12:52:51;;;;;;;16.15;7.85;;;5.50;81.60;;;;;;5103336;28;27480;-47
2020/12/02 12:55:36;;;;;;;16.63;9.30;;;5.40;81.40;;;;;;5107611;28;27461;-49
2020/12/02 12:58:21;;;;;;;20.70;9.85;;;5.40;82.10;;;;;;5108137;28;27396;-49
2020/12/02 13:01:08;;;;;;;17.63;9.02;;;5.30;82.20;;;;;;5106916;28;27430;-49
2020/12/02 13:03:55;;;;;;;17.25;8.88;;;5.20;82.60;;;;;;5105673;28;27461;-48
2020/12/02 13:07:06;;;;;;;20.52;10.35;;;5.20;82.50;;;;;;5106943;28;27438;-48
2020/12/02 13:10:11;;;;;;;16.80;9.02;;;5.10;82.30;;;;;;5091512;27;27514;-50
2020/12/02 13:13:28;;;;;;;18.33;9.10;;;5.10;83.10;;;;;;5103477;28;27416;-49
2020/12/02 13:16:20;;;;;;;17.77;9.70;;;5.10;83.00;;;;;;5103657;28;27857;-48
2020/12/02 13:19:32;;;;;;;17.70;9.48;;;5.10;82.90;;;;;;5107872;28;27351;-50
2020/12/02 13:22:57;;;;;;;20.73;9.75;;;5.00;83.30;;;;;;5107964;28;27372;-47
2020/12/02 13:25:47;;;;;;;22.63;11.00;;;4.90;83.00;;;;;;5105678;28;27359;-48
2020/12/02 13:28:51;;;;;;;21.67;10.63;;;4.90;83.50;;;;;;5107206;28;27985;-57
2020/12/02 13:31:38;;;;;;;19.83;10.38;;;4.80;83.50;;;;;;5107221;28;27430;-49
2020/12/02 13:34:23;;;;;;;20.23;10.68;;;4.80;83.20;;;;;;5106672;28;27483;-48
2020/12/02 13:37:09;;;;;;;25.52;11.65;;;4.70;83.10;;;;;;5106710;28;27529;-49
2020/12/02 13:39:54;;;;;;;21.25;10.18;;;4.70;83.40;;;;;;5092595;28;27480;-49
2020/12/02 13:42:38;;;;;;;22.25;11.13;;;4.70;83.40;;;;;;5107097;28;27473;-49
2020/12/02 13:45:27;;;;;;;22.35;11.05;;;4.60;83.50;;;;;;5107060;28;27414;-58
2020/12/02 13:48:14;;;;;;;21.42;11.02;;;4.60;83.50;;;;;;5107261;28;27394;-50
2020/12/02 13:51:22;;;;;;;20.88;11.13;;;4.60;83.60;;;;;;5107248;28;27347;-49
2020/12/02 13:54:11;;;;;;;24.15;11.60;;;4.50;83.50;;;;;;5107119;28;27458;-47
2020/12/02 13:57:10;;;;;;;24.30;11.68;;;4.50;83.70;;;;;;5091840;28;27413;-47
2020/12/02 14:00:05;;;;;;;20.77;10.85;;;4.50;83.80;;;;;;5107633;28;27513;-49
2020/12/02 14:03:16;;;;;;;24.20;11.43;;;4.40;84.10;;;;;;5102461;28;27876;-49
2020/12/02 14:06:36;;;;;;;19.70;10.88;;;4.40;84.00;;;;;;5105492;27;27369;-48
2020/12/02 14:09:23;;;;;;;24.50;12.25;;;4.40;84.50;;;;;;5106655;28;27465;-49
2020/12/02 14:12:13;;;;;;;25.25;12.00;;;4.30;84.80;;;;;;5106075;28;27460;-48
2020/12/02 14:14:58;;;;;;;23.58;11.68;;;4.30;84.20;;;;;;5106488;28;27954;-48
2020/12/02 14:17:43;;;;;;;23.02;11.68;;;4.30;84.20;;;;;;5107485;28;27391;-49
2020/12/02 14:20:28;;;;;;;27.73;12.20;;;4.20;84.20;;;;;;5107028;28;27413;-47
2020/12/02 14:23:14;;;;;;;23.67;11.10;;;4.20;84.20;;;;;;5106809;28;27342;-49
2020/12/02 14:25:59;;;;;;;25.42;10.90;;;4.20;84.50;;;;;;5103862;28;27366;-49
2020/12/02 14:28:43;;;;;;;27.40;11.25;;;4.20;84.50;;;;;;5106658;28;27411;-56
2020/12/02 14:31:28;;;;;;;23.00;11.30;;;4.10;84.20;;;;;;5105703;28;27414;-49
2020/12/02 14:34:13;;;;;;;24.02;11.45;;;4.10;84.30;;;;;;5105493;28;27390;-49
2020/12/02 14:36:58;;;;;;;23.35;11.38;;;4.00;84.10;;;;;;5107439;28;27388;-50
2020/12/02 14:39:42;;;;;;;27.00;12.63;;;4.00;84.00;;;;;;5106680;28;27382;-50
2020/12/02 14:42:27;;;;;;;22.25;11.52;;;4.00;84.30;;;;;;5106134;28;27367;-48
2020/12/02 14:45:11;;;;;;;24.85;11.55;;;4.00;84.20;;;;;;5106159;28;27397;-48
2020/12/02 14:47:56;;;;;;;23.48;11.85;;;3.90;84.60;;;;;;5091259;28;27873;-48
2020/12/02 14:50:40;;;;;;;25.10;11.55;;;3.90;84.60;;;;;;5105633;28;27344;-50